YBRK

Details ICAO YBRK (ROK)
Name Rockhampton
Region Australia
Timezone Australia/Brisbane (UTC+10.0)
Plans Departing 32
Arriving 29
Stats Elevation 34 ft / 10 m (AMSL)
Location -23.378793° 150.473288°
Runways 2
Magnetic Variation 9.207° E
Sunrise 2017-12-14 19:07:37 UTC / 2017-12-15 05:07:37 Local
Sunset 2017-12-15 08:41:18 UTC / 2017-12-15 18:41:18 Local
Advertisement - Login to hide

Runways

ID Width Length Bearing (true) Bearing (mag) Surface Threshold Offset Overrun Length
04 102 ft / 31 m 5,395 ft / 1,644 m 52.34° 43.13° Asphalt 0 ft / 0 m 20 ft / 6 m
15 148 ft / 45 m 8,649 ft / 2,636 m 157.80° 148.59° Asphalt 0 ft / 0 m 0 ft / 0 m
22 102 ft / 31 m 5,395 ft / 1,644 m 232.34° 223.13° Asphalt 0 ft / 0 m 0 ft / 0 m
33 148 ft / 45 m 8,649 ft / 2,636 m 337.80° 328.59° Asphalt 0 ft / 0 m 0 ft / 0 m

Map

Weather


0- 5 10 15 20 25 30 35+ Temperature / ° C

Clouds and Precipitation
Forecast for 2017-12-14 18:00 UTC. Updated 29 minutes ago

Ground ~20,000 ft ~40,000 ft Winds

METAR

YBRK 141730Z AUTO 09004KT 9999 // NCD 21/19 Q1009 RF00.0////./

TAF

TAF TAF YBRK 141059Z 1412/1512 11008KT 9999 FEW020 FM142300 10010KT 9999 FEW045

Frequencies

Recorded 128.50 MHz ATIS
Ground 121.80 MHz ROCKY GND
Unicom 118.10 MHz CTAF
Tower 118.10 MHz TWR
Warning: Do not use this data for real-world aviation or navigation. No guarantee of current accuracy is given.